Baxter, West Virginia
Current Conditions -  °F | °C
As of 6:53 AM on Sunday 23 Nov 2014 (Local Time) from KMGW Reporting Station
Scattered Clouds Scattered Clouds  
Wind Chill: 52°   Ceiling: Unl
Heat Index: 52°   Visibility: 10mi
Dew Point: 28°   Wind: 5mph
Humidity: 40%   Direction: 180°S
Pressure: 30.13"   Gusts: NA
Location:  39.54°N, 80.14°W
Report Text: KMGW 231153Z 18004KT 10SM SCT070 11/M02 A3013 RMK AO2 SLP204 T01111022 10117 20100 53003
Loading
Personal Weather Stations






























Interactive Weather Map New forecast layout! Learn more

10-Day Weather Forecast

Advertisements
Track Severe Weather on mobile